Time;durP1;ratioP1;P1;durP2;ratioP2;P2;SDS_P1;SDS_P2;PMS_P1;PMS_P2;Temp;Humidity;BMP_temperature;BMP_pressure;BME280_temperature;BME280_humidity;BME280_pressure;Samples;Min_cycle;Max_cycle;Signal;HPM_P1;HPM_P2
2023/10/14 00:10:06;;;;;;;22.13;14.48;;;21.60;82.70;;;;;;6249585;22;20613;-74
2023/10/14 00:12:32;;;;;;;18.23;14.35;;;21.60;82.40;;;;;;6245627;23;20008;-74
2023/10/14 00:15:03;;;;;;;26.50;15.95;;;21.60;82.10;;;;;;6245864;23;20023;-74
2023/10/14 00:17:35;;;;;;;21.50;14.80;;;21.60;82.30;;;;;;6245705;23;20036;-74
2023/10/14 00:20:00;;;;;;;21.63;15.00;;;21.60;82.10;;;;;;6243363;23;20012;-73
2023/10/14 00:22:29;;;;;;;21.83;14.63;;;21.60;82.20;;;;;;6245609;23;20448;-73
2023/10/14 00:24:58;;;;;;;26.00;15.75;;;21.60;82.10;;;;;;6245488;23;20015;-73
2023/10/14 00:27:24;;;;;;;25.40;15.55;;;21.60;82.40;;;;;;6245834;23;20413;-73
2023/10/14 00:30:06;;;;;;;25.25;16.48;;;21.50;82.40;;;;;;6245824;23;20007;-74
2023/10/14 00:32:32;;;;;;;20.30;16.08;;;21.50;82.70;;;;;;6218842;23;20158;-73
2023/10/14 00:34:58;;;;;;;22.10;16.15;;;21.50;82.60;;;;;;6245383;23;20000;-74
2023/10/14 00:37:24;;;;;;;25.70;16.73;;;21.50;82.80;;;;;;6245348;23;20038;-74
2023/10/14 00:40:00;;;;;;;23.08;16.83;;;21.40;82.80;;;;;;6218464;23;20014;-73
2023/10/14 00:42:26;;;;;;;26.75;16.90;;;21.40;83.00;;;;;;6219153;23;20087;-74
2023/10/14 00:44:52;;;;;;;22.73;16.02;;;21.40;83.30;;;;;;6246695;23;20004;-74
2023/10/14 00:47:18;;;;;;;24.73;16.55;;;21.40;83.10;;;;;;6246185;23;20008;-73
2023/10/14 00:49:45;;;;;;;22.83;16.35;;;21.30;83.50;;;;;;6245984;23;20080;-74
2023/10/14 00:52:18;;;;;;;24.17;17.48;;;21.30;83.60;;;;;;6245715;23;20019;-74
2023/10/14 00:59:44;;;;;;;28.58;17.67;;;21.20;84.00;;;;;;6247724;23;20055;-73
2023/10/14 01:02:10;;;;;;;29.20;17.58;;;21.10;83.70;;;;;;6245805;23;20026;-74
2023/10/14 01:04:38;;;;;;;21.85;16.75;;;21.10;83.90;;;;;;6259517;23;20015;-74
2023/10/14 01:07:04;;;;;;;24.05;16.35;;;21.10;83.70;;;;;;6247044;23;19996;-75
2023/10/14 01:12:19;;;;;;;30.10;18.27;;;21.20;83.60;;;;;;6247488;23;20008;-73
2023/10/14 01:14:45;;;;;;;22.50;16.33;;;21.10;83.90;;;;;;6245516;23;19996;-73
2023/10/14 01:17:21;;;;;;;28.10;16.80;;;21.00;84.20;;;;;;6245421;23;20086;-74
2023/10/14 01:19:47;;;;;;;24.88;17.60;;;21.10;84.20;;;;;;6245189;23;20050;-74
2023/10/14 01:22:13;;;;;;;28.67;17.42;;;21.00;84.20;;;;;;6245148;23;20004;-74
2023/10/14 01:24:39;;;;;;;26.50;17.35;;;21.00;84.30;;;;;;6245523;23;20000;-73
2023/10/14 01:27:06;;;;;;;25.65;17.90;;;21.00;84.20;;;;;;6218822;23;20000;-74
2023/10/14 01:29:39;;;;;;;23.95;18.20;;;21.00;84.50;;;;;;6219172;23;20504;-74
2023/10/14 01:32:18;;;;;;;30.95;18.45;;;20.90;84.30;;;;;;6246409;23;20000;-74
2023/10/14 01:34:43;;;;;;;24.50;17.92;;;20.80;84.90;;;;;;6246126;23;20020;-74
2023/10/14 01:37:19;;;;;;;27.60;18.15;;;20.80;84.80;;;;;;6245697;23;20441;-73
2023/10/14 01:39:49;;;;;;;27.55;17.30;;;20.80;85.10;;;;;;6244788;23;20000;-73
2023/10/14 01:42:17;;;;;;;26.73;17.70;;;20.80;84.90;;;;;;6244940;23;20158;-74
2023/10/14 01:44:42;;;;;;;24.38;17.33;;;20.80;84.80;;;;;;6244602;23;20150;-73
2023/10/14 01:47:08;;;;;;;29.33;18.50;;;20.80;84.80;;;;;;6245034;23;20007;-74
2023/10/14 01:49:37;;;;;;;23.38;16.35;;;20.80;84.50;;;;;;6245898;23;20371;-73
2023/10/14 01:52:07;;;;;;;26.88;16.45;;;20.70;84.40;;;;;;6218653;23;20350;-73
2023/10/14 01:54:33;;;;;;;23.33;16.23;;;20.70;84.60;;;;;;6245157;23;20003;-73
2023/10/14 01:56:59;;;;;;;24.45;15.75;;;20.70;84.30;;;;;;6244772;23;20008;-73
2023/10/14 01:59:27;;;;;;;27.60;16.40;;;20.80;84.20;;;;;;6244973;23;20445;-73
2023/10/14 02:01:57;;;;;;;24.33;15.52;;;20.80;83.90;;;;;;6244991;23;20019;-74
2023/10/14 02:04:23;;;;;;;27.45;15.07;;;20.80;83.80;;;;;;6247240;23;20019;-73
2023/10/14 02:07:02;;;;;;;23.42;15.88;;;20.80;83.70;;;;;;6259125;23;19988;-73
2023/10/14 02:09:29;;;;;;;26.88;16.23;;;20.80;83.60;;;;;;6244669;23;20063;-73
2023/10/14 02:11:56;;;;;;;27.08;17.67;;;20.80;84.00;;;;;;6245232;23;20012;-74
2023/10/14 02:14:22;;;;;;;26.52;15.65;;;20.80;84.00;;;;;;6244883;23;20493;-73
2023/10/14 02:16:48;;;;;;;28.63;17.23;;;20.80;84.00;;;;;;6244886;23;20004;-73
2023/10/14 02:19:18;;;;;;;32.15;18.35;;;20.80;83.80;;;;;;6244800;23;20099;-72
2023/10/14 02:21:44;;;;;;;35.00;18.85;;;20.70;83.90;;;;;;6244660;23;20481;-72
2023/10/14 02:24:11;;;;;;;31.10;19.77;;;20.60;83.80;;;;;;6244627;23;20003;-73
2023/10/14 02:26:38;;;;;;;24.88;17.88;;;20.60;84.20;;;;;;6244711;23;20010;-73
2023/10/14 02:29:09;;;;;;;23.45;17.25;;;20.50;84.30;;;;;;6245207;23;20004;-74
2023/10/14 02:31:37;;;;;;;25.10;17.83;;;20.50;84.20;;;;;;6244807;23;20456;-73
2023/10/14 02:34:07;;;;;;;25.02;18.05;;;20.50;84.40;;;;;;6244767;23;20000;-73
2023/10/14 02:36:48;;;;;;;26.77;17.58;;;20.50;84.10;;;;;;6244265;23;20008;-73
2023/10/14 02:39:17;;;;;;;26.95;17.77;;;20.50;84.20;;;;;;6244500;23;20035;-73
2023/10/14 02:44:32;;;;;;;23.08;16.23;;;20.30;84.00;;;;;;6245030;23;20016;-73
2023/10/14 02:47:05;;;;;;;23.40;16.83;;;20.30;84.00;;;;;;6244430;23;20430;-74
2023/10/14 02:49:39;;;;;;;24.38;17.05;;;20.30;84.00;;;;;;6217874;23;20064;-74
2023/10/14 02:52:09;;;;;;;26.30;16.90;;;20.30;84.00;;;;;;6244667;23;20028;-73
2023/10/14 02:54:35;;;;;;;24.20;15.18;;;20.20;83.90;;;;;;6245075;23;20095;-73
2023/10/14 02:57:12;;;;;;;23.63;15.50;;;20.20;84.10;;;;;;6244888;23;20084;-74
2023/10/14 03:02:14;;;;;;;18.90;15.25;;;20.40;83.80;;;;;;6247688;23;20098;-74
2023/10/14 03:07:30;;;;;;;25.38;16.85;;;20.40;83.20;;;;;;6253043;23;20012;-72
2023/10/14 03:12:49;;;;;;;25.85;16.23;;;20.30;83.70;;;;;;6247016;23;20373;-74
2023/10/14 03:15:20;;;;;;;26.48;16.63;;;20.40;83.60;;;;;;6246887;23;20015;-72
2023/10/14 03:17:55;;;;;;;24.83;15.52;;;20.40;83.20;;;;;;6246353;23;20004;-73
2023/10/14 03:22:57;;;;;;;25.20;16.00;;;20.30;83.30;;;;;;6246869;23;20014;-75
2023/10/14 03:25:23;;;;;;;20.42;15.10;;;20.30;82.80;;;;;;6246624;23;20000;-73
2023/10/14 03:27:59;;;;;;;20.38;14.50;;;20.30;82.70;;;;;;6245859;23;20004;-72
2023/10/14 03:30:26;;;;;;;22.67;15.18;;;20.20;82.90;;;;;;6246594;23;20004;-74
2023/10/14 03:32:52;;;;;;;22.45;14.32;;;20.20;82.90;;;;;;6246611;23;20007;-73
2023/10/14 03:35:21;;;;;;;22.35;13.98;;;20.10;82.90;;;;;;6246444;23;20338;-73
2023/10/14 03:37:54;;;;;;;23.95;14.70;;;20.00;83.20;;;;;;6246726;23;20000;-74
2023/10/14 03:43:14;;;;;;;22.50;14.40;;;20.00;83.70;;;;;;6246624;23;20011;-74
2023/10/14 03:48:29;;;;;;;23.17;13.68;;;20.10;83.30;;;;;;6223485;23;20046;-74
2023/10/14 03:51:02;;;;;;;18.83;13.93;;;20.10;83.40;;;;;;6247896;23;20083;-74
2023/10/14 03:53:34;;;;;;;17.42;13.63;;;20.10;83.00;;;;;;6246160;23;20023;-73
2023/10/14 03:56:00;;;;;;;21.38;14.07;;;20.10;82.50;;;;;;6246277;23;20476;-73
2023/10/14 03:58:29;;;;;;;22.13;14.10;;;20.10;82.60;;;;;;6246321;23;20011;-73
2023/10/14 04:00:57;;;;;;;16.83;13.55;;;20.10;82.60;;;;;;6245937;23;20012;-73
2023/10/14 04:06:21;;;;;;;18.23;13.00;;;20.00;82.50;;;;;;6196528;23;20019;-73
2023/10/14 04:08:48;;;;;;;23.08;12.98;;;19.90;82.40;;;;;;6246652;23;20008;-74
2023/10/14 04:11:25;;;;;;;22.73;13.35;;;19.90;82.30;;;;;;6259614;23;20086;-74
2023/10/14 04:13:58;;;;;;;21.52;13.73;;;20.00;82.60;;;;;;6221954;23;20031;-74
2023/10/14 04:16:28;;;;;;;23.05;13.63;;;20.00;82.20;;;;;;6246562;23;20004;-74
2023/10/14 04:19:01;;;;;;;21.15;14.45;;;20.00;82.10;;;;;;6245760;23;20000;-73
2023/10/14 04:21:37;;;;;;;21.93;14.13;;;20.00;81.90;;;;;;6245994;23;20008;-73
2023/10/14 04:27:17;;;;;;;18.15;13.48;;;19.90;82.10;;;;;;6164174;23;20072;-75
2023/10/14 04:29:58;;;;;;;19.15;12.35;;;19.80;82.30;;;;;;6245823;23;20003;-74
2023/10/14 04:32:42;;;;;;;15.68;12.10;;;19.80;82.00;;;;;;6246211;23;20011;-74
2023/10/14 04:35:08;;;;;;;18.85;12.90;;;19.80;82.40;;;;;;6245770;23;20431;-75
2023/10/14 04:37:50;;;;;;;18.50;12.88;;;19.80;82.60;;;;;;6218639;23;20011;-74
2023/10/14 04:40:36;;;;;;;22.52;12.98;;;19.80;82.10;;;;;;6245655;23;20410;-73
2023/10/14 04:45:52;;;;;;;17.30;12.85;;;19.60;82.40;;;;;;6245760;23;20012;-73
2023/10/14 04:48:35;;;;;;;22.73;12.80;;;19.60;82.10;;;;;;6245836;23;20058;-73
2023/10/14 04:51:15;;;;;;;16.88;12.70;;;19.70;82.20;;;;;;6247065;23;20451;-75
2023/10/14 04:53:49;;;;;;;18.40;12.73;;;19.70;81.80;;;;;;6246052;23;20000;-72
2023/10/14 04:56:22;;;;;;;20.48;12.45;;;19.70;81.70;;;;;;6245401;23;20004;-73
2023/10/14 04:58:52;;;;;;;20.08;12.63;;;19.70;81.90;;;;;;6245602;23;20000;-73
2023/10/14 05:01:18;;;;;;;22.27;13.73;;;19.60;81.90;;;;;;6245216;23;20350;-75
2023/10/14 05:03:47;;;;;;;19.23;13.40;;;19.60;82.20;;;;;;6245460;23;19996;-74
2023/10/14 05:08:45;;;;;;;19.27;13.38;;;19.60;81.90;;;;;;6247958;23;20335;-74
2023/10/14 05:11:22;;;;;;;16.65;12.98;;;19.50;82.40;;;;;;6247554;23;20076;-73
2023/10/14 05:14:08;;;;;;;18.42;12.80;;;19.50;82.00;;;;;;6257987;23;20031;-74
2023/10/14 05:16:54;;;;;;;19.40;13.18;;;19.50;81.90;;;;;;6245576;23;20004;-73
2023/10/14 05:19:24;;;;;;;24.27;12.70;;;19.50;81.70;;;;;;6245895;23;20031;-74
2023/10/14 05:22:05;;;;;;;24.52;13.02;;;19.50;81.70;;;;;;6218269;23;20046;-73
2023/10/14 05:24:31;;;;;;;18.80;11.50;;;19.50;81.90;;;;;;6245689;23;20000;-74
2023/10/14 05:27:00;;;;;;;24.10;11.73;;;19.50;81.60;;;;;;6245244;23;20062;-73
2023/10/14 05:29:29;;;;;;;19.30;12.15;;;19.50;81.70;;;;;;6218675;23;20004;-72
2023/10/14 05:32:15;;;;;;;19.52;13.10;;;19.50;81.30;;;;;;6245556;23;20010;-74
2023/10/14 05:34:43;;;;;;;21.13;12.73;;;19.50;81.40;;;;;;6245952;23;20503;-73
2023/10/14 05:37:11;;;;;;;20.70;12.63;;;19.40;81.50;;;;;;6245535;23;20015;-74
2023/10/14 05:39:40;;;;;;;22.30;13.23;;;19.40;81.50;;;;;;6245220;23;20393;-74
2023/10/14 05:42:17;;;;;;;21.48;13.13;;;19.40;81.50;;;;;;6245429;23;20013;-73
2023/10/14 05:44:49;;;;;;;21.88;14.77;;;19.40;81.60;;;;;;6245098;23;20015;-74
2023/10/14 05:47:17;;;;;;;24.25;14.48;;;19.30;81.80;;;;;;6245224;23;20409;-74
2023/10/14 05:49:43;;;;;;;24.33;15.73;;;19.30;81.80;;;;;;6244750;23;20445;-73
2023/10/14 05:52:11;;;;;;;23.58;15.50;;;19.20;81.90;;;;;;6245535;23;20003;-74
2023/10/14 05:54:37;;;;;;;22.33;16.13;;;19.30;82.00;;;;;;6220098;23;20346;-74
2023/10/14 05:57:06;;;;;;;24.95;15.20;;;19.30;82.10;;;;;;6245891;23;20334;-75
2023/10/14 05:59:32;;;;;;;23.85;16.60;;;19.30;82.00;;;;;;6245255;23;20008;-75
2023/10/14 06:01:58;;;;;;;28.75;17.60;;;19.30;82.00;;;;;;6245318;23;20024;-75
2023/10/14 06:04:24;;;;;;;23.15;16.38;;;19.30;82.00;;;;;;6244980;23;20036;-75
2023/10/14 06:06:49;;;;;;;24.75;16.58;;;19.30;82.10;;;;;;6245384;23;20019;-74
2023/10/14 11:26:15;;;;;;;15.82;7.10;;;26.20;70.80;;;;;;6246453;22;20583;-73
2023/10/14 11:28:45;;;;;;;17.50;7.18;;;26.20;71.70;;;;;;6245569;23;20011;-75
2023/10/14 11:31:12;;;;;;;25.20;7.22;;;26.30;71.60;;;;;;6245972;23;20034;-74
2023/10/14 11:33:38;;;;;;;47.10;14.23;;;26.30;71.40;;;;;;6246665;23;20050;-74
2023/10/14 11:36:04;;;;;;;17.92;7.68;;;26.40;71.10;;;;;;6244472;23;20004;-77
2023/10/14 11:38:31;;;;;;;17.95;5.45;;;26.50;71.00;;;;;;6246149;23;20019;-72
2023/10/14 11:41:02;;;;;;;15.70;6.43;;;26.50;70.70;;;;;;6246653;23;20330;-72
2023/10/14 11:43:29;;;;;;;24.55;8.10;;;26.50;70.50;;;;;;6246198;23;20035;-71
2023/10/14 11:45:56;;;;;;;24.08;6.53;;;26.50;70.30;;;;;;6246091;23;20099;-72
2023/10/14 11:48:33;;;;;;;20.00;8.75;;;26.50;70.00;;;;;;6245124;23;20059;-70
2023/10/14 11:51:00;;;;;;;15.00;6.72;;;26.50;70.20;;;;;;6245810;23;20004;-71
2023/10/14 11:53:27;;;;;;;20.90;8.75;;;26.50;70.20;;;;;;6246209;23;20000;-71
2023/10/14 11:56:01;;;;;;;20.55;8.75;;;26.50;70.20;;;;;;6245921;23;20000;-71
2023/10/14 11:58:31;;;;;;;16.73;7.65;;;26.40;69.00;;;;;;6245904;23;20000;-71
2023/10/14 12:00:57;;;;;;;25.13;7.97;;;26.40;70.60;;;;;;6245188;23;20087;-71
2023/10/14 12:03:27;;;;;;;18.40;7.05;;;26.40;70.30;;;;;;6244991;23;20000;-71
2023/10/14 12:05:57;;;;;;;16.90;6.75;;;26.50;69.80;;;;;;6245742;23;20043;-72
2023/10/14 12:08:27;;;;;;;14.82;6.85;;;26.50;69.90;;;;;;6244374;23;20304;-73
2023/10/14 12:10:54;;;;;;;14.95;5.82;;;26.60;69.50;;;;;;6245567;23;20079;-73
2023/10/14 12:13:20;;;;;;;12.45;5.88;;;26.50;69.40;;;;;;6245515;23;20008;-72
2023/10/14 12:15:46;;;;;;;11.80;5.38;;;26.50;69.30;;;;;;6245677;23;21150;-73
2023/10/14 12:18:15;;;;;;;14.05;6.00;;;26.50;69.60;;;;;;6245969;23;19992;-72
2023/10/14 12:20:45;;;;;;;12.38;5.75;;;26.50;69.60;;;;;;6244987;23;20031;-75
2023/10/14 12:23:18;;;;;;;13.65;6.07;;;26.40;69.50;;;;;;6246200;23;20008;-77
2023/10/14 12:25:46;;;;;;;11.65;5.78;;;26.40;68.70;;;;;;6219321;23;20081;-79
2023/10/14 12:28:17;;;;;;;14.90;5.72;;;26.40;69.60;;;;;;6246794;23;20015;-74
2023/10/14 12:30:46;;;;;;;13.02;5.63;;;26.40;69.90;;;;;;6245811;23;20004;-74
2023/10/14 12:33:18;;;;;;;15.13;5.90;;;26.40;69.60;;;;;;6244607;23;20028;-78
2023/10/14 12:35:45;;;;;;;15.60;4.90;;;26.50;69.70;;;;;;6245784;23;20034;-74
2023/10/14 12:38:15;;;;;;;14.15;5.70;;;26.50;69.90;;;;;;6244504;23;20012;-71
2023/10/14 12:40:44;;;;;;;13.50;5.65;;;26.50;69.30;;;;;;6245683;23;20004;-71
2023/10/14 12:43:12;;;;;;;11.25;5.60;;;26.60;70.20;;;;;;6245392;23;20004;-77
2023/10/14 12:45:38;;;;;;;25.88;8.75;;;26.70;69.80;;;;;;6245715;23;20326;-72
2023/10/14 12:48:10;;;;;;;25.27;8.52;;;26.70;69.70;;;;;;6244767;23;20007;-72
2023/10/14 12:50:40;;;;;;;12.38;5.00;;;26.80;69.00;;;;;;6244747;23;20010;-73
2023/10/14 12:53:08;;;;;;;13.77;5.15;;;26.80;69.20;;;;;;6244943;23;19996;-75
2023/10/14 12:55:36;;;;;;;13.60;5.28;;;26.80;69.10;;;;;;6245673;23;20012;-73
2023/10/14 12:58:02;;;;;;;13.73;5.13;;;26.80;68.90;;;;;;6244977;23;20000;-74
2023/10/14 13:00:29;;;;;;;13.48;4.85;;;26.80;69.00;;;;;;6245289;23;20016;-72
2023/10/14 13:02:59;;;;;;;11.48;5.28;;;26.80;68.70;;;;;;6245495;23;20008;-72
2023/10/14 13:05:25;;;;;;;14.73;5.88;;;26.70;69.00;;;;;;6244681;23;20330;-73
2023/10/14 13:07:52;;;;;;;12.55;5.50;;;26.60;69.20;;;;;;6245137;23;20007;-72
2023/10/14 13:10:23;;;;;;;12.25;5.10;;;26.60;69.80;;;;;;6245570;23;20050;-72
2023/10/14 13:12:53;;;;;;;12.90;5.45;;;26.60;69.80;;;;;;6245258;23;20004;-73
2023/10/14 13:15:30;;;;;;;16.80;6.13;;;26.60;68.90;;;;;;6247299;23;20315;-73
2023/10/14 13:18:00;;;;;;;14.85;5.50;;;26.60;70.10;;;;;;6245765;23;20057;-73
2023/10/14 13:20:29;;;;;;;21.50;8.23;;;26.70;70.00;;;;;;6245061;23;20488;-73
2023/10/14 13:23:03;;;;;;;25.92;7.50;;;26.80;68.90;;;;;;6244988;23;20011;-73
2023/10/14 13:25:32;;;;;;;21.98;6.68;;;26.90;69.50;;;;;;6262381;22;20031;-73
2023/10/14 13:27:58;;;;;;;21.60;7.95;;;26.90;69.00;;;;;;6275420;22;20075;-73
2023/10/14 13:30:24;;;;;;;21.15;6.93;;;27.00;69.00;;;;;;6275503;22;20042;-73
2023/10/14 13:32:57;;;;;;;13.80;5.93;;;26.90;69.20;;;;;;6275270;22;20000;-73
2023/10/14 13:35:23;;;;;;;16.23;5.95;;;26.90;69.20;;;;;;6272615;22;20370;-73
2023/10/14 13:37:50;;;;;;;17.88;7.55;;;26.80;68.90;;;;;;6275316;22;20065;-72
2023/10/14 13:40:25;;;;;;;21.58;8.68;;;26.80;69.00;;;;;;6273700;22;20071;-71
2023/10/14 13:42:53;;;;;;;16.13;6.80;;;26.80;69.10;;;;;;6275979;22;20038;-72
2023/10/14 13:45:21;;;;;;;13.43;5.32;;;26.70;69.10;;;;;;6275884;22;20026;-71
2023/10/14 13:47:51;;;;;;;16.40;7.18;;;26.70;68.80;;;;;;6275945;22;20000;-73
2023/10/14 13:50:20;;;;;;;25.73;9.50;;;26.80;68.80;;;;;;6276114;22;20000;-72
2023/10/14 13:52:51;;;;;;;26.15;10.20;;;26.70;68.40;;;;;;6275977;22;20004;-72
2023/10/14 13:55:18;;;;;;;17.30;6.80;;;26.70;69.20;;;;;;6275916;22;20007;-72
2023/10/14 13:57:47;;;;;;;19.13;7.40;;;26.70;69.20;;;;;;6275940;22;20456;-71
2023/10/14 14:00:19;;;;;;;16.55;4.88;;;26.70;69.40;;;;;;6275805;22;20053;-71
2023/10/14 14:02:48;;;;;;;20.50;7.13;;;26.70;69.20;;;;;;6275892;22;20012;-72
2023/10/14 14:05:18;;;;;;;23.88;9.13;;;26.70;69.30;;;;;;6248688;22;20091;-72
2023/10/14 14:07:46;;;;;;;21.73;7.53;;;26.70;69.40;;;;;;6248539;22;20077;-72
2023/10/14 14:10:16;;;;;;;13.07;5.25;;;26.80;69.60;;;;;;6275509;22;20006;-71
2023/10/14 14:12:42;;;;;;;12.73;4.85;;;26.80;69.20;;;;;;6275494;22;20004;-71
2023/10/14 14:15:08;;;;;;;27.90;10.50;;;26.80;69.20;;;;;;6275851;22;20034;-72
2023/10/14 14:17:34;;;;;;;17.00;7.10;;;26.80;69.00;;;;;;6275943;22;20007;-72
2023/10/14 14:20:01;;;;;;;19.05;6.85;;;26.80;68.80;;;;;;6275653;22;20000;-71
2023/10/14 14:22:27;;;;;;;16.75;5.90;;;26.80;68.70;;;;;;6275229;22;20007;-73
2023/10/14 14:24:55;;;;;;;15.68;5.25;;;26.80;68.80;;;;;;6275384;22;20019;-72
2023/10/14 14:27:21;;;;;;;21.42;5.72;;;26.80;68.90;;;;;;6275598;22;20010;-72
2023/10/14 14:29:46;;;;;;;17.65;5.68;;;26.70;69.30;;;;;;6275689;22;20079;-74
2023/10/14 14:32:12;;;;;;;13.50;5.15;;;26.70;69.80;;;;;;6275776;22;20010;-72
2023/10/14 14:34:38;;;;;;;12.35;5.70;;;26.60;69.80;;;;;;6275833;22;20430;-72
2023/10/14 14:37:08;;;;;;;16.95;6.38;;;26.60;70.00;;;;;;6276304;22;20106;-72
2023/10/14 14:39:34;;;;;;;16.92;6.10;;;26.50;70.20;;;;;;6275437;22;20004;-72
2023/10/14 14:42:02;;;;;;;15.45;6.10;;;26.50;70.60;;;;;;6275354;22;20011;-71
2023/10/14 14:44:29;;;;;;;19.23;7.47;;;26.40;69.70;;;;;;6275845;22;20003;-72
2023/10/14 14:46:54;;;;;;;18.02;7.25;;;26.40;70.60;;;;;;6275312;22;20062;-71
2023/10/14 14:49:23;;;;;;;16.85;7.20;;;26.40;70.60;;;;;;6275245;22;20361;-71
2023/10/14 14:51:48;;;;;;;15.23;6.50;;;26.30;70.50;;;;;;6275399;22;20460;-73
2023/10/14 14:54:15;;;;;;;14.82;4.70;;;26.30;70.60;;;;;;6275242;22;19996;-72
2023/10/14 14:56:40;;;;;;;13.63;5.25;;;26.30;70.50;;;;;;6249566;22;20008;-72
2023/10/14 14:59:06;;;;;;;18.02;6.00;;;26.30;70.40;;;;;;6277096;22;20018;-72
2023/10/14 15:01:34;;;;;;;12.77;6.00;;;26.30;70.30;;;;;;6250054;22;20017;-72
2023/10/14 15:04:00;;;;;;;13.07;5.55;;;26.40;70.40;;;;;;6277781;22;20004;-73
2023/10/14 15:06:26;;;;;;;16.80;6.38;;;26.30;70.70;;;;;;6277547;22;19999;-72
2023/10/14 15:08:51;;;;;;;14.63;5.80;;;26.30;70.80;;;;;;6277623;22;19999;-72
2023/10/14 15:11:18;;;;;;;17.10;6.35;;;26.20;71.10;;;;;;6250304;22;20389;-73
2023/10/14 15:13:44;;;;;;;13.85;5.80;;;26.20;71.50;;;;;;6250791;22;20015;-73
2023/10/14 15:16:10;;;;;;;16.17;5.38;;;26.20;71.00;;;;;;6277388;22;20345;-73
2023/10/14 15:18:40;;;;;;;15.43;5.45;;;26.20;71.80;;;;;;6250299;22;20081;-72
2023/10/14 15:21:06;;;;;;;15.40;5.97;;;26.20;72.10;;;;;;6277468;22;20425;-71
2023/10/14 15:23:32;;;;;;;17.15;7.40;;;26.10;71.80;;;;;;6277676;22;20341;-72
2023/10/14 15:25:58;;;;;;;21.08;7.25;;;26.10;71.80;;;;;;6277150;22;20043;-71
2023/10/14 15:28:23;;;;;;;16.00;6.32;;;26.00;71.90;;;;;;6277236;22;20459;-73
2023/10/14 15:30:49;;;;;;;12.90;5.47;;;26.00;72.20;;;;;;6277658;22;20053;-73
2023/10/14 15:33:15;;;;;;;16.17;5.47;;;26.00;71.80;;;;;;6278389;22;20074;-72
2023/10/14 15:35:41;;;;;;;17.70;5.65;;;25.90;71.80;;;;;;6277198;22;20034;-73
2023/10/14 15:38:13;;;;;;;14.80;6.50;;;25.90;71.90;;;;;;6277400;22;20098;-72
2023/10/14 15:40:44;;;;;;;13.35;5.78;;;25.90;72.00;;;;;;6276794;22;20031;-71
2023/10/14 15:43:10;;;;;;;17.45;6.43;;;25.90;72.30;;;;;;6276917;22;20014;-72
2023/10/14 15:45:36;;;;;;;13.73;5.20;;;25.90;72.40;;;;;;6277105;22;19996;-73
2023/10/14 15:48:11;;;;;;;15.00;5.55;;;25.80;72.70;;;;;;6277114;22;20019;-72
2023/10/14 15:50:43;;;;;;;13.80;5.07;;;25.80;72.70;;;;;;6277212;22;20004;-73
2023/10/14 15:53:11;;;;;;;14.65;6.05;;;25.80;73.00;;;;;;6277091;22;20027;-73
2023/10/14 15:55:38;;;;;;;18.35;5.38;;;25.70;73.20;;;;;;6276987;22;20007;-71
2023/10/14 15:58:07;;;;;;;18.52;5.72;;;25.70;73.40;;;;;;6276853;22;19999;-71
2023/10/14 16:00:35;;;;;;;19.30;5.60;;;25.70;72.40;;;;;;6277248;22;20326;-72
2023/10/14 16:03:09;;;;;;;12.88;5.30;;;25.70;73.70;;;;;;6277252;22;20019;-72
2023/10/14 16:05:41;;;;;;;20.38;6.05;;;25.60;73.80;;;;;;6277236;22;20022;-71
2023/10/14 16:08:13;;;;;;;15.30;6.07;;;25.60;74.10;;;;;;6276239;22;20437;-72
2023/10/14 16:10:40;;;;;;;17.15;5.85;;;25.50;74.10;;;;;;6277654;22;20085;-73
2023/10/14 16:13:06;;;;;;;16.40;6.10;;;25.50;73.90;;;;;;6276904;22;19996;-72
2023/10/14 16:15:32;;;;;;;20.67;7.03;;;25.50;73.70;;;;;;6276979;22;20007;-71
2023/10/14 16:18:02;;;;;;;18.13;7.43;;;25.50;74.10;;;;;;6276612;22;20090;-73
2023/10/14 16:20:29;;;;;;;12.65;7.35;;;25.40;74.00;;;;;;6276123;22;20110;-73
2023/10/14 16:22:57;;;;;;;17.35;6.82;;;25.40;74.50;;;;;;6277033;22;20338;-72
2023/10/14 16:25:24;;;;;;;17.60;5.90;;;25.30;74.40;;;;;;6276706;22;20015;-71
2023/10/14 16:27:52;;;;;;;14.57;6.68;;;25.30;74.50;;;;;;6276808;22;20014;-72
2023/10/14 16:30:21;;;;;;;19.02;6.30;;;25.30;75.00;;;;;;6275466;22;20008;-71
2023/10/14 16:32:49;;;;;;;18.80;6.18;;;25.30;74.90;;;;;;6275367;22;19999;-74
2023/10/14 16:35:19;;;;;;;22.52;6.20;;;25.20;75.30;;;;;;6277400;22;20272;-74
2023/10/14 16:37:46;;;;;;;17.13;5.57;;;25.20;73.90;;;;;;6277585;22;20003;-75
2023/10/14 16:40:17;;;;;;;12.48;5.82;;;25.10;76.80;;;;;;6277970;22;19999;-74
2023/10/14 16:42:50;;;;;;;19.00;5.75;;;25.10;76.10;;;;;;6276183;22;20469;-74
2023/10/14 16:45:16;;;;;;;14.57;6.20;;;25.10;76.10;;;;;;6276722;22;20003;-74
2023/10/14 16:47:44;;;;;;;15.80;5.88;;;25.10;76.00;;;;;;6276538;22;20003;-74
2023/10/14 16:50:13;;;;;;;17.55;5.80;;;25.00;76.30;;;;;;6275838;22;20034;-73
2023/10/14 16:52:47;;;;;;;14.80;6.13;;;25.00;76.40;;;;;;6276468;22;20073;-73
2023/10/14 16:55:14;;;;;;;16.95;6.03;;;25.00;75.90;;;;;;6276387;22;20000;-73
2023/10/14 16:57:43;;;;;;;21.27;6.97;;;24.90;76.70;;;;;;6249104;22;20015;-73
2023/10/14 17:00:14;;;;;;;14.55;6.60;;;24.90;79.30;;;;;;6276479;22;20012;-73
2023/10/14 17:02:43;;;;;;;14.20;6.43;;;24.90;76.00;;;;;;6276563;22;20090;-73
2023/10/14 17:05:12;;;;;;;18.83;6.95;;;24.90;77.10;;;;;;6275825;22;20365;-74
2023/10/14 17:07:40;;;;;;;18.30;7.55;;;24.80;78.50;;;;;;6275983;22;20069;-75
2023/10/14 17:10:08;;;;;;;19.98;7.30;;;24.80;77.10;;;;;;6249120;22;20333;-75
2023/10/14 17:12:35;;;;;;;21.45;8.18;;;24.80;77.40;;;;;;6275869;22;20086;-72
2023/10/14 17:15:05;;;;;;;15.38;7.60;;;24.70;77.60;;;;;;6275553;22;20025;-74
2023/10/14 17:17:33;;;;;;;21.80;6.97;;;24.80;77.70;;;;;;6249350;22;20034;-73
2023/10/14 17:19:58;;;;;;;25.90;7.38;;;24.70;77.80;;;;;;6246118;22;20323;-75
2023/10/14 17:22:24;;;;;;;23.73;7.40;;;24.70;77.90;;;;;;6274396;22;20019;-74
